sensor_id;sensor_type;location;lat;lon;timestamp;temperature;humidity
21167;DHT22;10741;52.272;9.580;2023-04-29T00:01:18;12.30;99.90
21167;DHT22;10741;52.272;9.580;2023-04-29T00:03:44;12.20;99.90
21167;DHT22;10741;52.272;9.580;2023-04-29T00:06:10;12.20;99.90
21167;DHT22;10741;52.272;9.580;2023-04-29T00:08:36;12.20;99.90
21167;DHT22;10741;52.272;9.580;2023-04-29T00:11:02;12.20;99.90
21167;DHT22;10741;52.272;9.580;2023-04-29T00:13:28;12.10;99.90
21167;DHT22;10741;52.272;9.580;2023-04-29T00:15:54;12.20;99.90
21167;DHT22;10741;52.272;9.580;2023-04-29T00:18:20;12.10;99.90
21167;DHT22;10741;52.272;9.580;2023-04-29T00:20:46;12.10;99.90
21167;DHT22;10741;52.272;9.580;2023-04-29T00:23:11;12.10;99.90
21167;DHT22;10741;52.272;9.580;2023-04-29T00:25:37;12.10;99.90
21167;DHT22;10741;52.272;9.580;2023-04-29T00:28:07;12.00;99.90
21167;DHT22;10741;52.272;9.580;2023-04-29T00:30:33;12.00;99.90
21167;DHT22;10741;52.272;9.580;2023-04-29T00:32:59;12.00;99.90
21167;DHT22;10741;52.272;9.580;2023-04-29T00:35:24;12.00;99.90
21167;DHT22;10741;52.272;9.580;2023-04-29T00:37:50;12.00;99.90
21167;DHT22;10741;52.272;9.580;2023-04-29T00:40:16;12.00;99.90
21167;DHT22;10741;52.272;9.580;2023-04-29T00:42:42;12.00;99.90
21167;DHT22;10741;52.272;9.580;2023-04-29T00:45:08;12.00;99.90
21167;DHT22;10741;52.272;9.580;2023-04-29T00:47:36;12.00;99.90
21167;DHT22;10741;52.272;9.580;2023-04-29T00:50:02;11.90;99.90
21167;DHT22;10741;52.272;9.580;2023-04-29T00:52:29;12.00;99.90
21167;DHT22;10741;52.272;9.580;2023-04-29T00:54:59;11.90;99.90
21167;DHT22;10741;52.272;9.580;2023-04-29T00:57:25;11.90;99.90
21167;DHT22;10741;52.272;9.580;2023-04-29T00:59:54;11.90;99.90
21167;DHT22;10741;52.272;9.580;2023-04-29T01:02:20;11.80;99.90
21167;DHT22;10741;52.272;9.580;2023-04-29T01:04:46;11.90;99.90
21167;DHT22;10741;52.272;9.580;2023-04-29T01:10:09;11.80;99.90
21167;DHT22;10741;52.272;9.580;2023-04-29T01:17:43;11.70;99.90
21167;DHT22;10741;52.272;9.580;2023-04-29T01:20:12;11.70;99.90
21167;DHT22;10741;52.272;9.580;2023-04-29T01:22:39;11.70;99.90
21167;DHT22;10741;52.272;9.580;2023-04-29T01:25:06;11.70;99.90
21167;DHT22;10741;52.272;9.580;2023-04-29T01:30:26;11.70;99.90
21167;DHT22;10741;52.272;9.580;2023-04-29T01:41:22;11.60;99.90
21167;DHT22;10741;52.272;9.580;2023-04-29T01:43:51;11.60;99.90
21167;DHT22;10741;52.272;9.580;2023-04-29T01:46:18;11.60;99.90
21167;DHT22;10741;52.272;9.580;2023-04-29T01:48:44;11.50;99.90
21167;DHT22;10741;52.272;9.580;2023-04-29T01:51:10;11.50;99.90
21167;DHT22;10741;52.272;9.580;2023-04-29T01:53:36;11.50;99.90
21167;DHT22;10741;52.272;9.580;2023-04-29T01:56:05;11.50;99.90
21167;DHT22;10741;52.272;9.580;2023-04-29T01:58:31;11.40;99.90
21167;DHT22;10741;52.272;9.580;2023-04-29T02:00:57;11.40;99.90
21167;DHT22;10741;52.272;9.580;2023-04-29T02:03:23;11.40;99.90
21167;DHT22;10741;52.272;9.580;2023-04-29T02:05:49;11.40;99.90
21167;DHT22;10741;52.272;9.580;2023-04-29T02:08:16;11.40;99.90
21167;DHT22;10741;52.272;9.580;2023-04-29T02:10:57;11.40;99.90
21167;DHT22;10741;52.272;9.580;2023-04-29T02:13:23;11.40;99.90
21167;DHT22;10741;52.272;9.580;2023-04-29T02:15:49;11.40;99.90
21167;DHT22;10741;52.272;9.580;2023-04-29T02:18:15;11.30;99.90
21167;DHT22;10741;52.272;9.580;2023-04-29T02:20:41;11.40;99.90
21167;DHT22;10741;52.272;9.580;2023-04-29T02:23:07;11.30;99.90
21167;DHT22;10741;52.272;9.580;2023-04-29T02:25:32;11.30;99.90
21167;DHT22;10741;52.272;9.580;2023-04-29T02:27:58;11.30;99.90
21167;DHT22;10741;52.272;9.580;2023-04-29T02:30:24;11.30;99.90
21167;DHT22;10741;52.272;9.580;2023-04-29T02:32:50;11.20;99.90
21167;DHT22;10741;52.272;9.580;2023-04-29T02:35:15;11.30;99.90
21167;DHT22;10741;52.272;9.580;2023-04-29T02:37:41;11.30;99.90
21167;DHT22;10741;52.272;9.580;2023-04-29T02:40:07;11.20;99.90
21167;DHT22;10741;52.272;9.580;2023-04-29T02:42:33;11.20;99.90
21167;DHT22;10741;52.272;9.580;2023-04-29T02:44:59;11.20;99.90
21167;DHT22;10741;52.272;9.580;2023-04-29T02:47:25;11.20;99.90
21167;DHT22;10741;52.272;9.580;2023-04-29T02:49:51;11.20;99.90
21167;DHT22;10741;52.272;9.580;2023-04-29T02:52:16;11.10;99.90
21167;DHT22;10741;52.272;9.580;2023-04-29T02:54:43;11.10;99.90
21167;DHT22;10741;52.272;9.580;2023-04-29T02:57:09;11.10;99.90
21167;DHT22;10741;52.272;9.580;2023-04-29T02:59:35;11.10;99.90
21167;DHT22;10741;52.272;9.580;2023-04-29T03:02:01;11.10;99.90
21167;DHT22;10741;52.272;9.580;2023-04-29T03:04:27;11.00;99.90
21167;DHT22;10741;52.272;9.580;2023-04-29T03:06:56;11.00;99.90
21167;DHT22;10741;52.272;9.580;2023-04-29T03:09:22;10.90;99.90
21167;DHT22;10741;52.272;9.580;2023-04-29T03:11:48;10.90;99.90
21167;DHT22;10741;52.272;9.580;2023-04-29T03:14:14;10.90;99.90
21167;DHT22;10741;52.272;9.580;2023-04-29T03:16:40;10.80;99.90
21167;DHT22;10741;52.272;9.580;2023-04-29T03:19:07;10.80;99.90
21167;DHT22;10741;52.272;9.580;2023-04-29T03:21:33;10.80;99.90
21167;DHT22;10741;52.272;9.580;2023-04-29T03:23:58;10.80;99.90
21167;DHT22;10741;52.272;9.580;2023-04-29T03:26:24;10.80;99.90
21167;DHT22;10741;52.272;9.580;2023-04-29T03:28:50;10.80;99.90
21167;DHT22;10741;52.272;9.580;2023-04-29T03:31:16;10.70;99.90
21167;DHT22;10741;52.272;9.580;2023-04-29T03:33:42;10.70;99.90
21167;DHT22;10741;52.272;9.580;2023-04-29T03:36:08;10.70;99.90
21167;DHT22;10741;52.272;9.580;2023-04-29T03:38:34;10.70;99.90
21167;DHT22;10741;52.272;9.580;2023-04-29T03:41:00;10.60;99.90
21167;DHT22;10741;52.272;9.580;2023-04-29T03:43:26;10.50;99.90
21167;DHT22;10741;52.272;9.580;2023-04-29T03:45:52;10.50;99.90
21167;DHT22;10741;52.272;9.580;2023-04-29T03:48:18;10.50;99.90
21167;DHT22;10741;52.272;9.580;2023-04-29T03:50:44;10.50;99.90
21167;DHT22;10741;52.272;9.580;2023-04-29T03:53:11;10.50;99.90
21167;DHT22;10741;52.272;9.580;2023-04-29T03:55:37;10.40;99.90
21167;DHT22;10741;52.272;9.580;2023-04-29T03:58:03;10.40;99.90
21167;DHT22;10741;52.272;9.580;2023-04-29T04:00:29;10.40;99.90
21167;DHT22;10741;52.272;9.580;2023-04-29T04:02:56;10.40;99.90
21167;DHT22;10741;52.272;9.580;2023-04-29T04:05:22;10.40;99.90
21167;DHT22;10741;52.272;9.580;2023-04-29T04:07:50;10.30;99.90
21167;DHT22;10741;52.272;9.580;2023-04-29T04:10:17;10.30;99.90
21167;DHT22;10741;52.272;9.580;2023-04-29T04:12:43;10.30;99.90
21167;DHT22;10741;52.272;9.580;2023-04-29T04:15:09;10.30;99.90
21167;DHT22;10741;52.272;9.580;2023-04-29T04:17:36;10.30;99.90
21167;DHT22;10741;52.272;9.580;2023-04-29T04:20:02;10.20;99.90
21167;DHT22;10741;52.272;9.580;2023-04-29T04:22:27;10.20;99.90
21167;DHT22;10741;52.272;9.580;2023-04-29T04:24:56;10.20;99.90
21167;DHT22;10741;52.272;9.580;2023-04-29T04:27:22;10.20;99.90
21167;DHT22;10741;52.272;9.580;2023-04-29T04:29:51;10.20;99.90
21167;DHT22;10741;52.272;9.580;2023-04-29T04:32:17;10.20;99.90
21167;DHT22;10741;52.272;9.580;2023-04-29T04:34:43;10.20;99.90
21167;DHT22;10741;52.272;9.580;2023-04-29T04:37:09;10.20;99.90
21167;DHT22;10741;52.272;9.580;2023-04-29T04:39:34;10.10;99.90
21167;DHT22;10741;52.272;9.580;2023-04-29T04:42:00;10.10;99.90
21167;DHT22;10741;52.272;9.580;2023-04-29T04:44:28;10.10;99.90
21167;DHT22;10741;52.272;9.580;2023-04-29T04:46:54;10.10;99.90
21167;DHT22;10741;52.272;9.580;2023-04-29T04:49:22;10.10;99.90
21167;DHT22;10741;52.272;9.580;2023-04-29T04:51:49;10.10;99.90
21167;DHT22;10741;52.272;9.580;2023-04-29T04:54:16;10.10;99.90
21167;DHT22;10741;52.272;9.580;2023-04-29T04:56:41;10.10;99.90
21167;DHT22;10741;52.272;9.580;2023-04-29T04:59:07;10.10;99.90
21167;DHT22;10741;52.272;9.580;2023-04-29T05:01:33;10.10;99.90
21167;DHT22;10741;52.272;9.580;2023-04-29T05:03:59;10.10;99.90
21167;DHT22;10741;52.272;9.580;2023-04-29T05:06:25;10.10;99.90
21167;DHT22;10741;52.272;9.580;2023-04-29T05:08:51;10.10;99.90
21167;DHT22;10741;52.272;9.580;2023-04-29T05:11:20;10.10;99.90
21167;DHT22;10741;52.272;9.580;2023-04-29T05:13:46;10.10;99.90
21167;DHT22;10741;52.272;9.580;2023-04-29T05:16:12;10.10;99.90
21167;DHT22;10741;52.272;9.580;2023-04-29T05:18:38;10.00;99.90
21167;DHT22;10741;52.272;9.580;2023-04-29T05:21:04;10.00;99.90
21167;DHT22;10741;52.272;9.580;2023-04-29T05:23:30;10.00;99.90
21167;DHT22;10741;52.272;9.580;2023-04-29T05:25:56;9.90;99.90
21167;DHT22;10741;52.272;9.580;2023-04-29T05:28:22;9.90;99.90
21167;DHT22;10741;52.272;9.580;2023-04-29T05:30:50;9.90;99.90
21167;DHT22;10741;52.272;9.580;2023-04-29T05:33:16;9.90;99.90
21167;DHT22;10741;52.272;9.580;2023-04-29T05:35:42;9.90;99.90
21167;DHT22;10741;52.272;9.580;2023-04-29T05:38:08;9.90;99.90
21167;DHT22;10741;52.272;9.580;2023-04-29T05:40:33;9.90;99.90
21167;DHT22;10741;52.272;9.580;2023-04-29T05:42:59;9.90;99.90
21167;DHT22;10741;52.272;9.580;2023-04-29T05:45:25;9.90;99.90
21167;DHT22;10741;52.272;9.580;2023-04-29T05:47:51;9.90;99.90
21167;DHT22;10741;52.272;9.580;2023-04-29T05:50:17;9.90;99.90
21167;DHT22;10741;52.272;9.580;2023-04-29T05:52:42;9.90;99.90
21167;DHT22;10741;52.272;9.580;2023-04-29T05:55:08;9.80;99.90
21167;DHT22;10741;52.272;9.580;2023-04-29T05:57:34;9.90;99.90
21167;DHT22;10741;52.272;9.580;2023-04-29T06:00:00;9.90;99.90
21167;DHT22;10741;52.272;9.580;2023-04-29T06:02:26;9.80;99.90
21167;DHT22;10741;52.272;9.580;2023-04-29T06:04:52;9.80;99.90
21167;DHT22;10741;52.272;9.580;2023-04-29T06:07:18;9.80;99.90
21167;DHT22;10741;52.272;9.580;2023-04-29T06:09:43;9.80;99.90
21167;DHT22;10741;52.272;9.580;2023-04-29T06:12:10;9.80;99.90
21167;DHT22;10741;52.272;9.580;2023-04-29T06:14:35;9.80;99.90
21167;DHT22;10741;52.272;9.580;2023-04-29T06:17:01;9.70;99.90
21167;DHT22;10741;52.272;9.580;2023-04-29T06:19:28;9.70;99.90
21167;DHT22;10741;52.272;9.580;2023-04-29T06:21:54;9.70;99.90
21167;DHT22;10741;52.272;9.580;2023-04-29T06:24:20;9.70;99.90
21167;DHT22;10741;52.272;9.580;2023-04-29T06:26:45;9.80;99.90
21167;DHT22;10741;52.272;9.580;2023-04-29T06:29:11;9.80;99.90
21167;DHT22;10741;52.272;9.580;2023-04-29T06:31:37;9.80;99.90
21167;DHT22;10741;52.272;9.580;2023-04-29T06:34:03;9.80;99.90
21167;DHT22;10741;52.272;9.580;2023-04-29T06:36:28;9.80;99.90
21167;DHT22;10741;52.272;9.580;2023-04-29T06:38:54;9.80;99.90
21167;DHT22;10741;52.272;9.580;2023-04-29T06:41:20;9.70;99.90
21167;DHT22;10741;52.272;9.580;2023-04-29T06:43:46;9.70;99.90
21167;DHT22;10741;52.272;9.580;2023-04-29T06:46:12;9.80;99.90
21167;DHT22;10741;52.272;9.580;2023-04-29T06:48:38;9.80;99.90
21167;DHT22;10741;52.272;9.580;2023-04-29T06:51:03;9.80;99.90
21167;DHT22;10741;52.272;9.580;2023-04-29T06:53:29;9.80;99.90
21167;DHT22;10741;52.272;9.580;2023-04-29T06:55:55;9.80;99.90
21167;DHT22;10741;52.272;9.580;2023-04-29T06:58:21;9.90;99.90
21167;DHT22;10741;52.272;9.580;2023-04-29T07:00:48;9.80;99.90
21167;DHT22;10741;52.272;9.580;2023-04-29T07:03:15;9.80;99.90
21167;DHT22;10741;52.272;9.580;2023-04-29T07:05:43;9.80;99.90
21167;DHT22;10741;52.272;9.580;2023-04-29T07:08:10;9.90;99.90
21167;DHT22;10741;52.272;9.580;2023-04-29T07:10:37;10.00;99.90
21167;DHT22;10741;52.272;9.580;2023-04-29T07:13:03;10.00;99.90
21167;DHT22;10741;52.272;9.580;2023-04-29T07:15:32;10.10;99.90
21167;DHT22;10741;52.272;9.580;2023-04-29T07:17:58;10.10;99.90
21167;DHT22;10741;52.272;9.580;2023-04-29T07:20:25;10.10;99.90
21167;DHT22;10741;52.272;9.580;2023-04-29T07:22:51;10.20;99.90
21167;DHT22;10741;52.272;9.580;2023-04-29T07:25:17;10.20;99.90
21167;DHT22;10741;52.272;9.580;2023-04-29T07:27:43;10.40;99.90
21167;DHT22;10741;52.272;9.580;2023-04-29T07:30:09;10.40;99.90
21167;DHT22;10741;52.272;9.580;2023-04-29T07:32:35;10.60;99.90
21167;DHT22;10741;52.272;9.580;2023-04-29T07:35:02;10.80;99.90
21167;DHT22;10741;52.272;9.580;2023-04-29T07:37:28;11.10;99.90
21167;DHT22;10741;52.272;9.580;2023-04-29T07:39:54;11.40;99.90
21167;DHT22;10741;52.272;9.580;2023-04-29T07:42:22;11.50;99.90
21167;DHT22;10741;52.272;9.580;2023-04-29T07:44:48;11.40;99.90
21167;DHT22;10741;52.272;9.580;2023-04-29T07:47:13;11.30;99.90
21167;DHT22;10741;52.272;9.580;2023-04-29T07:49:39;11.30;99.90
21167;DHT22;10741;52.272;9.580;2023-04-29T07:52:06;11.30;99.90
21167;DHT22;10741;52.272;9.580;2023-04-29T07:54:35;11.40;99.90
21167;DHT22;10741;52.272;9.580;2023-04-29T07:57:01;11.70;99.90
21167;DHT22;10741;52.272;9.580;2023-04-29T07:59:31;11.80;99.90
21167;DHT22;10741;52.272;9.580;2023-04-29T08:01:57;12.10;99.90
21167;DHT22;10741;52.272;9.580;2023-04-29T08:04:23;12.10;99.90
21167;DHT22;10741;52.272;9.580;2023-04-29T08:06:49;12.00;99.90
21167;DHT22;10741;52.272;9.580;2023-04-29T08:09:15;12.00;99.90
21167;DHT22;10741;52.272;9.580;2023-04-29T08:11:42;12.00;99.90
21167;DHT22;10741;52.272;9.580;2023-04-29T08:14:08;12.00;99.90
21167;DHT22;10741;52.272;9.580;2023-04-29T08:16:34;12.10;99.90
21167;DHT22;10741;52.272;9.580;2023-04-29T08:19:00;12.10;99.90
21167;DHT22;10741;52.272;9.580;2023-04-29T08:21:25;12.10;99.90
21167;DHT22;10741;52.272;9.580;2023-04-29T08:23:52;12.20;99.90
21167;DHT22;10741;52.272;9.580;2023-04-29T08:26:18;12.30;99.90
21167;DHT22;10741;52.272;9.580;2023-04-29T08:28:44;12.40;99.90
21167;DHT22;10741;52.272;9.580;2023-04-29T08:31:17;12.40;99.90
21167;DHT22;10741;52.272;9.580;2023-04-29T08:33:43;12.70;99.90
21167;DHT22;10741;52.272;9.580;2023-04-29T08:36:09;12.80;99.90
21167;DHT22;10741;52.272;9.580;2023-04-29T08:38:34;12.80;99.90
21167;DHT22;10741;52.272;9.580;2023-04-29T08:41:00;13.00;99.90
21167;DHT22;10741;52.272;9.580;2023-04-29T08:43:26;12.90;99.90
21167;DHT22;10741;52.272;9.580;2023-04-29T08:45:52;13.30;99.90
21167;DHT22;10741;52.272;9.580;2023-04-29T08:48:18;14.00;99.90
21167;DHT22;10741;52.272;9.580;2023-04-29T08:50:44;14.20;99.90
21167;DHT22;10741;52.272;9.580;2023-04-29T08:53:12;14.20;99.90
21167;DHT22;10741;52.272;9.580;2023-04-29T08:55:45;14.10;99.90
21167;DHT22;10741;52.272;9.580;2023-04-29T08:58:13;13.90;99.90
21167;DHT22;10741;52.272;9.580;2023-04-29T09:00:42;13.80;99.90
21167;DHT22;10741;52.272;9.580;2023-04-29T09:03:33;13.80;99.90
21167;DHT22;10741;52.272;9.580;2023-04-29T09:06:02;13.80;99.90
21167;DHT22;10741;52.272;9.580;2023-04-29T09:08:29;13.70;99.90
21167;DHT22;10741;52.272;9.580;2023-04-29T09:10:57;13.70;99.90
21167;DHT22;10741;52.272;9.580;2023-04-29T09:13:29;13.50;99.90
21167;DHT22;10741;52.272;9.580;2023-04-29T09:15:55;13.40;99.90
21167;DHT22;10741;52.272;9.580;2023-04-29T09:18:41;13.20;99.90
21167;DHT22;10741;52.272;9.580;2023-04-29T09:23:52;12.90;99.90
21167;DHT22;10741;52.272;9.580;2023-04-29T09:26:19;12.80;99.90
21167;DHT22;10741;52.272;9.580;2023-04-29T09:28:45;12.80;99.90
21167;DHT22;10741;52.272;9.580;2023-04-29T09:31:12;12.90;99.90
21167;DHT22;10741;52.272;9.580;2023-04-29T09:33:54;13.00;99.90
21167;DHT22;10741;52.272;9.580;2023-04-29T09:39:06;13.10;99.90
21167;DHT22;10741;52.272;9.580;2023-04-29T09:41:40;13.10;99.90
21167;DHT22;10741;52.272;9.580;2023-04-29T09:44:07;13.10;99.90
21167;DHT22;10741;52.272;9.580;2023-04-29T09:46:33;12.90;99.90
21167;DHT22;10741;52.272;9.580;2023-04-29T09:49:01;12.70;99.90
21167;DHT22;10741;52.272;9.580;2023-04-29T09:51:27;12.60;99.90
21167;DHT22;10741;52.272;9.580;2023-04-29T09:53:58;12.50;99.90
21167;DHT22;10741;52.272;9.580;2023-04-29T09:56:23;12.50;99.90
21167;DHT22;10741;52.272;9.580;2023-04-29T09:58:53;12.50;99.90
21167;DHT22;10741;52.272;9.580;2023-04-29T10:01:21;12.30;99.90
21167;DHT22;10741;52.272;9.580;2023-04-29T10:03:47;12.50;99.90
21167;DHT22;10741;52.272;9.580;2023-04-29T10:06:16;12.60;99.90
21167;DHT22;10741;52.272;9.580;2023-04-29T10:08:43;12.60;99.90
21167;DHT22;10741;52.272;9.580;2023-04-29T10:11:10;12.60;99.90
21167;DHT22;10741;52.272;9.580;2023-04-29T10:13:37;12.80;99.90
21167;DHT22;10741;52.272;9.580;2023-04-29T10:18:40;12.90;99.90
21167;DHT22;10741;52.272;9.580;2023-04-29T10:21:10;12.90;99.90
21167;DHT22;10741;52.272;9.580;2023-04-29T10:23:36;13.10;99.90
21167;DHT22;10741;52.272;9.580;2023-04-29T10:26:03;13.20;99.90
21167;DHT22;10741;52.272;9.580;2023-04-29T10:28:31;13.40;99.90
21167;DHT22;10741;52.272;9.580;2023-04-29T10:31:01;13.60;99.90
21167;DHT22;10741;52.272;9.580;2023-04-29T10:33:31;13.80;99.90
21167;DHT22;10741;52.272;9.580;2023-04-29T10:36:00;13.90;99.90
21167;DHT22;10741;52.272;9.580;2023-04-29T10:38:35;14.00;99.90
21167;DHT22;10741;52.272;9.580;2023-04-29T10:41:05;14.10;99.90
21167;DHT22;10741;52.272;9.580;2023-04-29T10:43:34;14.40;99.90
21167;DHT22;10741;52.272;9.580;2023-04-29T10:48:43;14.80;99.90
21167;DHT22;10741;52.272;9.580;2023-04-29T10:51:08;15.20;99.90
21167;DHT22;10741;52.272;9.580;2023-04-29T10:53:34;15.30;99.90
21167;DHT22;10741;52.272;9.580;2023-04-29T10:56:08;15.20;99.90
21167;DHT22;10741;52.272;9.580;2023-04-29T10:58:43;15.40;99.90
21167;DHT22;10741;52.272;9.580;2023-04-29T11:01:14;15.40;99.90
21167;DHT22;10741;52.272;9.580;2023-04-29T11:03:54;15.20;99.90
21167;DHT22;10741;52.272;9.580;2023-04-29T11:17:00;14.90;99.90
21167;DHT22;10741;52.272;9.580;2023-04-29T11:19:33;15.20;99.90
21167;DHT22;10741;52.272;9.580;2023-04-29T11:22:25;15.70;99.90
21167;DHT22;10741;52.272;9.580;2023-04-29T11:25:04;15.60;99.90
21167;DHT22;10741;52.272;9.580;2023-04-29T11:27:31;15.10;99.90
21167;DHT22;10741;52.272;9.580;2023-04-29T11:29:58;14.90;99.90
21167;DHT22;10741;52.272;9.580;2023-04-29T11:32:31;14.60;99.90
21167;DHT22;10741;52.272;9.580;2023-04-29T11:35:17;14.30;99.90
21167;DHT22;10741;52.272;9.580;2023-04-29T11:37:45;14.10;99.90
21167;DHT22;10741;52.272;9.580;2023-04-29T11:40:14;14.00;99.90
21167;DHT22;10741;52.272;9.580;2023-04-29T11:42:48;14.10;99.90
21167;DHT22;10741;52.272;9.580;2023-04-29T11:45:16;14.20;99.90
21167;DHT22;10741;52.272;9.580;2023-04-29T11:47:43;14.30;99.90
21167;DHT22;10741;52.272;9.580;2023-04-29T11:50:11;14.40;99.90
21167;DHT22;10741;52.272;9.580;2023-04-29T11:52:38;14.60;99.90
21167;DHT22;10741;52.272;9.580;2023-04-29T11:55:05;14.80;99.90
21167;DHT22;10741;52.272;9.580;2023-04-29T11:57:33;15.20;99.90
21167;DHT22;10741;52.272;9.580;2023-04-29T11:59:59;15.80;99.90
21167;DHT22;10741;52.272;9.580;2023-04-29T12:02:32;17.00;99.90
21167;DHT22;10741;52.272;9.580;2023-04-29T12:04:59;17.60;99.90
21167;DHT22;10741;52.272;9.580;2023-04-29T12:07:25;17.70;99.90
21167;DHT22;10741;52.272;9.580;2023-04-29T12:09:51;16.90;99.90
21167;DHT22;10741;52.272;9.580;2023-04-29T12:12:17;16.40;99.90
21167;DHT22;10741;52.272;9.580;2023-04-29T12:14:43;15.90;99.90
21167;DHT22;10741;52.272;9.580;2023-04-29T12:17:09;15.40;99.90
21167;DHT22;10741;52.272;9.580;2023-04-29T12:19:36;15.30;99.90
21167;DHT22;10741;52.272;9.580;2023-04-29T12:22:04;15.20;99.90
21167;DHT22;10741;52.272;9.580;2023-04-29T12:24:37;15.10;99.90
21167;DHT22;10741;52.272;9.580;2023-04-29T12:27:07;15.10;99.90
21167;DHT22;10741;52.272;9.580;2023-04-29T12:29:38;16.00;99.90
21167;DHT22;10741;52.272;9.580;2023-04-29T12:32:07;17.90;99.90
21167;DHT22;10741;52.272;9.580;2023-04-29T12:34:38;18.60;99.90
21167;DHT22;10741;52.272;9.580;2023-04-29T12:37:04;18.80;99.90
21167;DHT22;10741;52.272;9.580;2023-04-29T12:39:30;18.10;99.90
21167;DHT22;10741;52.272;9.580;2023-04-29T12:42:00;17.20;99.90
21167;DHT22;10741;52.272;9.580;2023-04-29T12:44:35;16.50;99.90
21167;DHT22;10741;52.272;9.580;2023-04-29T12:47:11;16.10;99.90
21167;DHT22;10741;52.272;9.580;2023-04-29T12:49:40;15.70;99.90
21167;DHT22;10741;52.272;9.580;2023-04-29T12:52:07;15.50;99.90
21167;DHT22;10741;52.272;9.580;2023-04-29T12:54:35;15.20;99.90
21167;DHT22;10741;52.272;9.580;2023-04-29T12:57:02;15.00;99.90
21167;DHT22;10741;52.272;9.580;2023-04-29T12:59:28;14.90;99.90
21167;DHT22;10741;52.272;9.580;2023-04-29T13:01:54;14.80;99.90
21167;DHT22;10741;52.272;9.580;2023-04-29T13:04:20;14.70;99.90
21167;DHT22;10741;52.272;9.580;2023-04-29T13:06:45;14.80;99.90
21167;DHT22;10741;52.272;9.580;2023-04-29T13:09:11;14.80;99.90
21167;DHT22;10741;52.272;9.580;2023-04-29T13:11:38;14.90;99.90
21167;DHT22;10741;52.272;9.580;2023-04-29T13:14:04;15.10;99.90
21167;DHT22;10741;52.272;9.580;2023-04-29T13:16:32;15.20;99.90
21167;DHT22;10741;52.272;9.580;2023-04-29T13:18:58;15.30;99.90
21167;DHT22;10741;52.272;9.580;2023-04-29T13:21:24;15.20;99.90
21167;DHT22;10741;52.272;9.580;2023-04-29T13:23:49;15.20;99.90
21167;DHT22;10741;52.272;9.580;2023-04-29T13:26:16;15.30;99.90
21167;DHT22;10741;52.272;9.580;2023-04-29T13:28:43;15.10;99.90
21167;DHT22;10741;52.272;9.580;2023-04-29T13:31:09;15.10;99.90
21167;DHT22;10741;52.272;9.580;2023-04-29T13:33:35;15.10;99.90
21167;DHT22;10741;52.272;9.580;2023-04-29T13:36:01;15.10;99.90
21167;DHT22;10741;52.272;9.580;2023-04-29T13:38:27;15.00;99.90
21167;DHT22;10741;52.272;9.580;2023-04-29T13:40:52;15.10;99.90
21167;DHT22;10741;52.272;9.580;2023-04-29T13:43:18;15.20;99.90
21167;DHT22;10741;52.272;9.580;2023-04-29T13:45:44;15.30;99.90
21167;DHT22;10741;52.272;9.580;2023-04-29T13:48:10;15.30;99.90
21167;DHT22;10741;52.272;9.580;2023-04-29T13:50:36;15.20;99.90
21167;DHT22;10741;52.272;9.580;2023-04-29T13:53:02;15.10;99.90
21167;DHT22;10741;52.272;9.580;2023-04-29T13:55:27;14.90;99.90
21167;DHT22;10741;52.272;9.580;2023-04-29T13:57:54;14.70;99.90
21167;DHT22;10741;52.272;9.580;2023-04-29T14:00:20;14.60;99.90
21167;DHT22;10741;52.272;9.580;2023-04-29T14:02:46;14.50;99.90
21167;DHT22;10741;52.272;9.580;2023-04-29T14:05:12;14.50;99.90
21167;DHT22;10741;52.272;9.580;2023-04-29T14:07:38;14.50;99.90
21167;DHT22;10741;52.272;9.580;2023-04-29T14:10:04;14.60;99.90
21167;DHT22;10741;52.272;9.580;2023-04-29T14:12:30;14.70;99.90
21167;DHT22;10741;52.272;9.580;2023-04-29T14:14:56;14.80;99.90
21167;DHT22;10741;52.272;9.580;2023-04-29T14:17:22;14.90;99.90
21167;DHT22;10741;52.272;9.580;2023-04-29T14:19:48;14.90;99.90
21167;DHT22;10741;52.272;9.580;2023-04-29T14:22:13;15.00;99.90
21167;DHT22;10741;52.272;9.580;2023-04-29T14:24:39;15.00;99.90
21167;DHT22;10741;52.272;9.580;2023-04-29T14:27:05;15.00;99.90
21167;DHT22;10741;52.272;9.580;2023-04-29T14:29:31;15.00;99.90
21167;DHT22;10741;52.272;9.580;2023-04-29T14:31:57;15.10;99.90
21167;DHT22;10741;52.272;9.580;2023-04-29T14:34:22;15.30;99.90
21167;DHT22;10741;52.272;9.580;2023-04-29T14:36:48;15.50;99.90
21167;DHT22;10741;52.272;9.580;2023-04-29T14:39:14;15.60;99.90
21167;DHT22;10741;52.272;9.580;2023-04-29T14:41:40;15.70;99.90
21167;DHT22;10741;52.272;9.580;2023-04-29T14:44:05;15.70;99.90
21167;DHT22;10741;52.272;9.580;2023-04-29T14:46:32;15.80;99.90
21167;DHT22;10741;52.272;9.580;2023-04-29T14:48:58;15.90;99.90
21167;DHT22;10741;52.272;9.580;2023-04-29T14:51:24;15.60;99.90
21167;DHT22;10741;52.272;9.580;2023-04-29T14:53:50;15.70;99.90
21167;DHT22;10741;52.272;9.580;2023-04-29T14:56:16;15.70;99.90
21167;DHT22;10741;52.272;9.580;2023-04-29T14:58:42;15.70;99.90
21167;DHT22;10741;52.272;9.580;2023-04-29T15:01:08;15.80;99.90
21167;DHT22;10741;52.272;9.580;2023-04-29T15:03:34;15.70;99.90
21167;DHT22;10741;52.272;9.580;2023-04-29T15:06:03;15.70;99.90
21167;DHT22;10741;52.272;9.580;2023-04-29T15:08:29;15.70;99.90
21167;DHT22;10741;52.272;9.580;2023-04-29T15:10:55;15.70;99.90
21167;DHT22;10741;52.272;9.580;2023-04-29T15:13:21;15.60;99.90
21167;DHT22;10741;52.272;9.580;2023-04-29T15:15:48;15.50;99.90
21167;DHT22;10741;52.272;9.580;2023-04-29T15:18:13;15.30;99.90
21167;DHT22;10741;52.272;9.580;2023-04-29T15:20:39;15.30;99.90
21167;DHT22;10741;52.272;9.580;2023-04-29T15:23:06;15.30;99.90
21167;DHT22;10741;52.272;9.580;2023-04-29T15:25:33;15.30;99.90
21167;DHT22;10741;52.272;9.580;2023-04-29T15:28:00;15.30;99.90
21167;DHT22;10741;52.272;9.580;2023-04-29T15:30:26;15.30;99.90
21167;DHT22;10741;52.272;9.580;2023-04-29T15:32:52;15.30;99.90
21167;DHT22;10741;52.272;9.580;2023-04-29T15:35:18;15.10;99.90
21167;DHT22;10741;52.272;9.580;2023-04-29T15:37:44;15.10;99.90
21167;DHT22;10741;52.272;9.580;2023-04-29T15:40:10;15.40;99.90
21167;DHT22;10741;52.272;9.580;2023-04-29T15:42:36;16.10;99.90
21167;DHT22;10741;52.272;9.580;2023-04-29T15:45:01;16.70;99.90
21167;DHT22;10741;52.272;9.580;2023-04-29T15:47:27;17.10;99.90
21167;DHT22;10741;52.272;9.580;2023-04-29T15:49:53;17.40;99.90
21167;DHT22;10741;52.272;9.580;2023-04-29T15:52:21;17.40;99.90
21167;DHT22;10741;52.272;9.580;2023-04-29T15:54:47;17.00;99.90
21167;DHT22;10741;52.272;9.580;2023-04-29T15:57:13;16.70;99.90
21167;DHT22;10741;52.272;9.580;2023-04-29T15:59:39;16.80;99.90
21167;DHT22;10741;52.272;9.580;2023-04-29T16:02:04;16.80;99.90
21167;DHT22;10741;52.272;9.580;2023-04-29T16:04:35;16.60;99.90
21167;DHT22;10741;52.272;9.580;2023-04-29T16:07:01;16.80;99.90
21167;DHT22;10741;52.272;9.580;2023-04-29T16:09:33;16.60;99.90
21167;DHT22;10741;52.272;9.580;2023-04-29T16:11:59;16.60;99.90